Saturday, July 21, 2018, 2:22 AM CDT
Back to Local

KP28, Medicine Lodge

Location: Medicine Lodge, KS, United States Lat: 37.283
Local Time: 2:22 AM CDT ( 7:22 GMT) Lon: -98.55
Time Zone: US/Central Elev: 1538 ft

Show me the last for .
Show Decoded

2018-07-21 01:56 METAR KP28 210656Z AUTO 34012G22KT 28/17 A2999 RMK AO1 PK WND 34026/0645 SLP135
                 T02830172 =
2018-07-21 00:56 METAR KP28 210556Z AUTO 07008KT 28/18 A2994 RMK AO1 SLP117 T02830183 10333 20272
                 403560222 51004 =
2018-07-20 23:56 METAR KP28 210456Z AUTO VRB04KT 29/20 A2993 RMK AO1 SLP114 T02890200 =
2018-07-20 22:56 METAR KP28 210356Z AUTO 08007KT 28/21 A2996 RMK AO1 SLP124 T02830211 =
2018-07-20 21:56 METAR KP28 210256Z AUTO 02004KT 29/22 A2993 RMK AO1 SLP115 T02890222 53037 =
2018-07-20 20:56 METAR KP28 210156Z AUTO 08011G22KT 31/23 A2984 RMK AO1 SLP086 T03060228 =
2018-07-20 19:56 METAR KP28 210056Z AUTO 08011G19KT 32/23 A2983 RMK AO1 SLP080 T03220233 =
2018-07-20 18:56 METAR KP28 202356Z AUTO 08016G23KT 33/23 A2981 RMK AO1 SLP076 T03330233 10356
                 20322 56022 =
2018-07-20 17:56 METAR KP28 202256Z AUTO 08014G22KT 34/23 A2982 RMK AO1 SLP080 T03390228 =
2018-07-20 16:56 METAR KP28 202156Z AUTO 09008KT 33/23 A2983 RMK AO1 SLP082 T03330228 =
2018-07-20 15:56 METAR KP28 202056Z AUTO 06009KT 33/23 A2988 RMK AO1 SLP100 T03330228 53006 =
2018-07-20 14:56 METAR KP28 201956Z AUTO 12009G16KT 36/22 A2984 RMK AO1 SLP083 T03560222 =
2018-07-20 13:56 METAR KP28 201856Z AUTO 12008KT 34/22 A2985 RMK AO1 SLP087 T03390217 =
2018-07-20 12:56 METAR KP28 201756Z AUTO VRB04KT 33/23 A2986 RMK AO1 SLP092 T03280228 10328 20228
                 58005 =
2018-07-20 11:56 METAR KP28 201656Z AUTO 14005KT 31/23 A2988 RMK AO1 SLP097 T03110228 =
2018-07-20 10:56 METAR KP28 201556Z AUTO 07006KT 30/23 A2989 RMK AO1 SLP100 T03000233 =
2018-07-20 09:56 METAR KP28 201456Z AUTO 06005KT 28/23 A2988 RMK AO1 SLP098 T02830233 51007 =
2018-07-20 08:56 METAR KP28 201356Z AUTO 00000KT 27/23 A2988 RMK AO1 SLP099 T02720228 =
2018-07-20 07:56 METAR KP28 201256Z AUTO 01003KT 25/23 A2987 RMK AO1 SLP096 T02500228 =
2018-07-20 06:56 METAR KP28 201156Z AUTO 00000KT 23/22 A2986 RMK AO1 SLP091 70003 T02280217 10289
                 20222 53011 =
2018-07-20 05:56 METAR KP28 201056Z AUTO 03004KT 22/21 A2984 RMK AO1 SLP085 T02220211 =
2018-07-20 04:56 METAR KP28 200956Z AUTO 01005KT 23/21 A2984 RMK AO1 SLP085 T02280211 =
2018-07-20 03:56 METAR KP28 200856Z AUTO 01005KT 24/22 A2983 RMK AO1 SLP079 T02390217 53003 =
2018-07-20 02:56 METAR KP28 200756Z AUTO 12003KT 27/21 A2981 RMK AO1 SLP073 T02670211 =

Support USWX by starting your Amazon purchase here.